sensor_id;sensor_type;location;lat;lon;timestamp;temperature;humidity
67182;DHT22;54114;53.524;49.396;2022-12-29T00:01:33;-4.40;75.40
67182;DHT22;54114;53.524;49.396;2022-12-29T00:04:00;-4.40;75.50
67182;DHT22;54114;53.524;49.396;2022-12-29T00:06:30;-4.30;75.70
67182;DHT22;54114;53.524;49.396;2022-12-29T00:09:00;-4.30;75.60
67182;DHT22;54114;53.524;49.396;2022-12-29T00:11:30;-4.30;75.60
67182;DHT22;54114;53.524;49.396;2022-12-29T00:14:02;-4.30;75.60
67182;DHT22;54114;53.524;49.396;2022-12-29T00:16:48;-4.30;75.80
67182;DHT22;54114;53.524;49.396;2022-12-29T00:19:15;-4.30;75.90
67182;DHT22;54114;53.524;49.396;2022-12-29T00:22:00;-4.30;76.10
67182;DHT22;54114;53.524;49.396;2022-12-29T00:24:48;-4.30;76.10
67182;DHT22;54114;53.524;49.396;2022-12-29T00:27:33;-4.40;76.20
67182;DHT22;54114;53.524;49.396;2022-12-29T00:30:19;-4.30;76.00
67182;DHT22;54114;53.524;49.396;2022-12-29T00:33:09;-4.30;75.90
67182;DHT22;54114;53.524;49.396;2022-12-29T00:35:58;-4.30;76.10
67182;DHT22;54114;53.524;49.396;2022-12-29T00:38:25;-4.40;76.00
67182;DHT22;54114;53.524;49.396;2022-12-29T00:41:10;-4.40;75.90
67182;DHT22;54114;53.524;49.396;2022-12-29T00:43:58;-4.40;76.00
67182;DHT22;54114;53.524;49.396;2022-12-29T00:46:36;-4.40;76.20
67182;DHT22;54114;53.524;49.396;2022-12-29T00:49:07;-4.40;76.30
67182;DHT22;54114;53.524;49.396;2022-12-29T00:51:53;-4.40;76.30
67182;DHT22;54114;53.524;49.396;2022-12-29T00:54:20;-4.40;76.30
67182;DHT22;54114;53.524;49.396;2022-12-29T00:56:50;-4.40;76.40
67182;DHT22;54114;53.524;49.396;2022-12-29T00:59:19;-4.30;76.60
67182;DHT22;54114;53.524;49.396;2022-12-29T01:01:48;-4.30;76.60
67182;DHT22;54114;53.524;49.396;2022-12-29T01:04:15;-4.30;76.70
67182;DHT22;54114;53.524;49.396;2022-12-29T01:06:43;-4.30;76.60
67182;DHT22;54114;53.524;49.396;2022-12-29T01:09:12;-4.30;76.70
67182;DHT22;54114;53.524;49.396;2022-12-29T01:12:03;-4.30;76.80
67182;DHT22;54114;53.524;49.396;2022-12-29T01:14:30;-4.30;76.70
67182;DHT22;54114;53.524;49.396;2022-12-29T01:16:59;-4.30;76.90
67182;DHT22;54114;53.524;49.396;2022-12-29T01:19:25;-4.30;77.00
67182;DHT22;54114;53.524;49.396;2022-12-29T01:21:52;-4.30;77.10
67182;DHT22;54114;53.524;49.396;2022-12-29T01:24:20;-4.40;77.10
67182;DHT22;54114;53.524;49.396;2022-12-29T01:26:47;-4.40;77.30
67182;DHT22;54114;53.524;49.396;2022-12-29T01:29:14;-4.40;77.60
67182;DHT22;54114;53.524;49.396;2022-12-29T01:31:43;-4.30;77.70
67182;DHT22;54114;53.524;49.396;2022-12-29T01:34:12;-4.40;77.60
67182;DHT22;54114;53.524;49.396;2022-12-29T01:36:41;-4.40;77.60
67182;DHT22;54114;53.524;49.396;2022-12-29T01:39:09;-4.40;77.70
67182;DHT22;54114;53.524;49.396;2022-12-29T01:41:39;-4.40;77.80
67182;DHT22;54114;53.524;49.396;2022-12-29T01:47:11;-4.30;77.70
67182;DHT22;54114;53.524;49.396;2022-12-29T01:49:41;-4.30;77.90
67182;DHT22;54114;53.524;49.396;2022-12-29T01:52:11;-4.30;78.00
67182;DHT22;54114;53.524;49.396;2022-12-29T01:54:42;-4.30;78.00
67182;DHT22;54114;53.524;49.396;2022-12-29T01:57:16;-4.20;78.00
67182;DHT22;54114;53.524;49.396;2022-12-29T01:59:46;-4.20;77.80
67182;DHT22;54114;53.524;49.396;2022-12-29T02:02:16;-4.20;77.70
67182;DHT22;54114;53.524;49.396;2022-12-29T02:04:43;-4.10;77.80
67182;DHT22;54114;53.524;49.396;2022-12-29T02:07:13;-4.10;77.80
67182;DHT22;54114;53.524;49.396;2022-12-29T02:09:46;-4.00;77.50
67182;DHT22;54114;53.524;49.396;2022-12-29T02:12:14;-4.00;77.30
67182;DHT22;54114;53.524;49.396;2022-12-29T02:14:43;-4.00;77.30
67182;DHT22;54114;53.524;49.396;2022-12-29T02:34:08;-4.10;77.60
67182;DHT22;54114;53.524;49.396;2022-12-29T02:36:43;-4.00;77.80
67182;DHT22;54114;53.524;49.396;2022-12-29T02:44:51;-4.10;77.80
67182;DHT22;54114;53.524;49.396;2022-12-29T02:47:24;-4.10;78.00
67182;DHT22;54114;53.524;49.396;2022-12-29T02:50:01;-4.10;78.20
67182;DHT22;54114;53.524;49.396;2022-12-29T02:52:34;-4.10;78.40
67182;DHT22;54114;53.524;49.396;2022-12-29T02:55:03;-4.20;78.40
67182;DHT22;54114;53.524;49.396;2022-12-29T02:57:32;-4.20;78.60
67182;DHT22;54114;53.524;49.396;2022-12-29T03:00:04;-4.20;78.70
67182;DHT22;54114;53.524;49.396;2022-12-29T03:05:33;-4.20;79.70
67182;DHT22;54114;53.524;49.396;2022-12-29T03:08:31;-4.20;79.40
67182;DHT22;54114;53.524;49.396;2022-12-29T03:11:06;-4.20;79.60
67182;DHT22;54114;53.524;49.396;2022-12-29T03:17:19;-4.20;79.80
67182;DHT22;54114;53.524;49.396;2022-12-29T03:20:01;-4.20;79.90
67182;DHT22;54114;53.524;49.396;2022-12-29T03:22:31;-4.10;79.80
67182;DHT22;54114;53.524;49.396;2022-12-29T03:27:58;-4.20;79.60
67182;DHT22;54114;53.524;49.396;2022-12-29T03:30:28;-4.20;79.60
67182;DHT22;54114;53.524;49.396;2022-12-29T03:32:58;-4.20;79.60
67182;DHT22;54114;53.524;49.396;2022-12-29T03:35:31;-4.20;79.50
67182;DHT22;54114;53.524;49.396;2022-12-29T03:38:11;-4.20;79.40
67182;DHT22;54114;53.524;49.396;2022-12-29T03:40:45;-4.20;79.40
67182;DHT22;54114;53.524;49.396;2022-12-29T03:43:18;-4.20;79.50
67182;DHT22;54114;53.524;49.396;2022-12-29T03:45:51;-4.20;79.60
67182;DHT22;54114;53.524;49.396;2022-12-29T03:48:17;-4.30;79.50
67182;DHT22;54114;53.524;49.396;2022-12-29T03:50:46;-4.20;79.60
67182;DHT22;54114;53.524;49.396;2022-12-29T03:53:13;-4.20;79.50
67182;DHT22;54114;53.524;49.396;2022-12-29T03:55:39;-4.20;79.40
67182;DHT22;54114;53.524;49.396;2022-12-29T03:58:06;-4.20;79.30
67182;DHT22;54114;53.524;49.396;2022-12-29T04:00:33;-4.20;79.30
67182;DHT22;54114;53.524;49.396;2022-12-29T04:03:03;-4.20;79.20
67182;DHT22;54114;53.524;49.396;2022-12-29T04:05:29;-4.20;79.20
67182;DHT22;54114;53.524;49.396;2022-12-29T04:07:58;-4.20;79.40
67182;DHT22;54114;53.524;49.396;2022-12-29T04:10:24;-4.20;79.60
67182;DHT22;54114;53.524;49.396;2022-12-29T04:12:50;-4.20;79.60
67182;DHT22;54114;53.524;49.396;2022-12-29T04:15:17;-4.20;79.60
67182;DHT22;54114;53.524;49.396;2022-12-29T04:17:43;-4.20;79.80
67182;DHT22;54114;53.524;49.396;2022-12-29T04:20:10;-4.20;79.80
67182;DHT22;54114;53.524;49.396;2022-12-29T04:23:01;-4.20;80.00
67182;DHT22;54114;53.524;49.396;2022-12-29T04:25:31;-4.20;80.00
67182;DHT22;54114;53.524;49.396;2022-12-29T04:28:01;-4.20;80.70
67182;DHT22;54114;53.524;49.396;2022-12-29T04:30:29;-4.20;80.20
67182;DHT22;54114;53.524;49.396;2022-12-29T04:32:56;-4.20;80.30
67182;DHT22;54114;53.524;49.396;2022-12-29T04:35:22;-4.20;80.30
67182;DHT22;54114;53.524;49.396;2022-12-29T04:37:51;-4.10;80.40
67182;DHT22;54114;53.524;49.396;2022-12-29T04:40:17;-4.10;80.30
67182;DHT22;54114;53.524;49.396;2022-12-29T04:42:44;-4.10;80.40
67182;DHT22;54114;53.524;49.396;2022-12-29T04:45:12;-4.10;80.20
67182;DHT22;54114;53.524;49.396;2022-12-29T04:47:48;-4.10;80.00
67182;DHT22;54114;53.524;49.396;2022-12-29T04:50:17;-4.10;80.10
67182;DHT22;54114;53.524;49.396;2022-12-29T04:52:43;-4.10;80.10
67182;DHT22;54114;53.524;49.396;2022-12-29T04:55:12;-4.10;80.10
67182;DHT22;54114;53.524;49.396;2022-12-29T04:57:38;-4.10;80.10
67182;DHT22;54114;53.524;49.396;2022-12-29T05:00:05;-4.10;80.30
67182;DHT22;54114;53.524;49.396;2022-12-29T05:02:35;-4.10;80.30
67182;DHT22;54114;53.524;49.396;2022-12-29T05:05:02;-4.10;80.30
67182;DHT22;54114;53.524;49.396;2022-12-29T05:07:28;-4.10;80.40
67182;DHT22;54114;53.524;49.396;2022-12-29T05:09:59;-4.00;81.10
67182;DHT22;54114;53.524;49.396;2022-12-29T05:12:25;-4.00;80.20
67182;DHT22;54114;53.524;49.396;2022-12-29T05:14:55;-4.00;80.20
67182;DHT22;54114;53.524;49.396;2022-12-29T05:17:22;-4.00;80.30
67182;DHT22;54114;53.524;49.396;2022-12-29T05:19:51;-4.00;80.10
67182;DHT22;54114;53.524;49.396;2022-12-29T05:22:21;-4.00;80.00
67182;DHT22;54114;53.524;49.396;2022-12-29T05:24:48;-4.00;80.00
67182;DHT22;54114;53.524;49.396;2022-12-29T05:27:16;-4.00;80.00
67182;DHT22;54114;53.524;49.396;2022-12-29T05:29:42;-3.90;80.00
67182;DHT22;54114;53.524;49.396;2022-12-29T05:32:08;-3.90;79.90
67182;DHT22;54114;53.524;49.396;2022-12-29T05:34:35;-3.80;79.90
67182;DHT22;54114;53.524;49.396;2022-12-29T05:37:01;-3.80;79.70
67182;DHT22;54114;53.524;49.396;2022-12-29T05:39:28;-3.80;80.20
67182;DHT22;54114;53.524;49.396;2022-12-29T05:41:55;-3.80;79.50
67182;DHT22;54114;53.524;49.396;2022-12-29T05:44:21;-3.80;79.40
67182;DHT22;54114;53.524;49.396;2022-12-29T05:46:47;-3.80;79.20
67182;DHT22;54114;53.524;49.396;2022-12-29T05:49:16;-3.80;79.20
67182;DHT22;54114;53.524;49.396;2022-12-29T05:51:43;-3.80;79.40
67182;DHT22;54114;53.524;49.396;2022-12-29T05:54:09;-3.80;79.50
67182;DHT22;54114;53.524;49.396;2022-12-29T05:56:39;-3.80;79.60
67182;DHT22;54114;53.524;49.396;2022-12-29T05:59:05;-3.70;79.80
67182;DHT22;54114;53.524;49.396;2022-12-29T06:01:34;-3.60;80.10
67182;DHT22;54114;53.524;49.396;2022-12-29T06:04:00;-3.50;79.70
67182;DHT22;54114;53.524;49.396;2022-12-29T06:06:27;-3.40;79.50
67182;DHT22;54114;53.524;49.396;2022-12-29T06:08:56;-3.40;79.20
67182;DHT22;54114;53.524;49.396;2022-12-29T06:11:23;-3.40;78.90
67182;DHT22;54114;53.524;49.396;2022-12-29T06:13:49;-3.30;78.90
67182;DHT22;54114;53.524;49.396;2022-12-29T06:16:18;-3.30;78.80
67182;DHT22;54114;53.524;49.396;2022-12-29T06:18:46;-3.20;78.50
67182;DHT22;54114;53.524;49.396;2022-12-29T06:21:13;-3.20;78.30
67182;DHT22;54114;53.524;49.396;2022-12-29T06:23:42;-3.10;78.30
67182;DHT22;54114;53.524;49.396;2022-12-29T06:26:09;-3.00;78.30
67182;DHT22;54114;53.524;49.396;2022-12-29T06:28:35;-3.00;77.80
67182;DHT22;54114;53.524;49.396;2022-12-29T06:31:02;-3.00;77.30
67182;DHT22;54114;53.524;49.396;2022-12-29T06:33:30;-2.90;76.90
67182;DHT22;54114;53.524;49.396;2022-12-29T06:35:57;-3.00;76.80
67182;DHT22;54114;53.524;49.396;2022-12-29T06:38:23;-3.00;76.60
67182;DHT22;54114;53.524;49.396;2022-12-29T06:40:50;-3.00;76.30
67182;DHT22;54114;53.524;49.396;2022-12-29T06:43:16;-2.90;76.10
67182;DHT22;54114;53.524;49.396;2022-12-29T06:45:49;-2.90;76.20
67182;DHT22;54114;53.524;49.396;2022-12-29T06:48:17;-2.90;76.30
67182;DHT22;54114;53.524;49.396;2022-12-29T06:50:44;-2.90;76.40
67182;DHT22;54114;53.524;49.396;2022-12-29T06:53:10;-2.80;76.40
67182;DHT22;54114;53.524;49.396;2022-12-29T06:55:37;-2.70;76.50
67182;DHT22;54114;53.524;49.396;2022-12-29T06:58:03;-2.70;76.40
67182;DHT22;54114;53.524;49.396;2022-12-29T07:00:30;-2.60;76.40
67182;DHT22;54114;53.524;49.396;2022-12-29T07:02:56;-2.60;76.20
67182;DHT22;54114;53.524;49.396;2022-12-29T07:05:24;-2.50;76.40
67182;DHT22;54114;53.524;49.396;2022-12-29T07:07:54;-2.40;76.50
67182;DHT22;54114;53.524;49.396;2022-12-29T07:10:21;-2.30;76.30
67182;DHT22;54114;53.524;49.396;2022-12-29T07:12:48;-2.30;75.70
67182;DHT22;54114;53.524;49.396;2022-12-29T07:15:16;-2.20;75.60
67182;DHT22;54114;53.524;49.396;2022-12-29T07:17:48;-2.20;75.30
67182;DHT22;54114;53.524;49.396;2022-12-29T07:20:17;-2.20;75.10
67182;DHT22;54114;53.524;49.396;2022-12-29T07:22:44;-2.20;74.90
67182;DHT22;54114;53.524;49.396;2022-12-29T07:25:13;-2.10;74.80
67182;DHT22;54114;53.524;49.396;2022-12-29T07:27:43;-2.10;74.40
67182;DHT22;54114;53.524;49.396;2022-12-29T07:30:14;-2.10;74.40
67182;DHT22;54114;53.524;49.396;2022-12-29T07:32:45;-2.10;74.40
67182;DHT22;54114;53.524;49.396;2022-12-29T07:35:14;-2.00;74.10
67182;DHT22;54114;53.524;49.396;2022-12-29T07:37:41;-2.00;74.20
67182;DHT22;54114;53.524;49.396;2022-12-29T07:40:08;-1.90;74.00
67182;DHT22;54114;53.524;49.396;2022-12-29T07:42:35;-1.90;73.80
67182;DHT22;54114;53.524;49.396;2022-12-29T07:45:02;-1.90;73.80
67182;DHT22;54114;53.524;49.396;2022-12-29T07:47:28;-1.80;73.80
67182;DHT22;54114;53.524;49.396;2022-12-29T07:49:55;-1.80;73.40
67182;DHT22;54114;53.524;49.396;2022-12-29T07:52:24;-1.80;73.00
67182;DHT22;54114;53.524;49.396;2022-12-29T07:54:50;-1.80;72.50
67182;DHT22;54114;53.524;49.396;2022-12-29T07:57:17;-1.90;72.50
67182;DHT22;54114;53.524;49.396;2022-12-29T07:59:44;-1.90;72.30
67182;DHT22;54114;53.524;49.396;2022-12-29T08:02:13;-1.90;72.40
67182;DHT22;54114;53.524;49.396;2022-12-29T08:04:39;-1.90;72.30
67182;DHT22;54114;53.524;49.396;2022-12-29T08:07:08;-1.90;72.30
67182;DHT22;54114;53.524;49.396;2022-12-29T08:09:36;-1.90;72.20
67182;DHT22;54114;53.524;49.396;2022-12-29T08:12:03;-1.90;72.10
67182;DHT22;54114;53.524;49.396;2022-12-29T08:14:29;-1.90;72.20
67182;DHT22;54114;53.524;49.396;2022-12-29T08:16:59;-1.90;72.30
67182;DHT22;54114;53.524;49.396;2022-12-29T08:19:33;-2.00;72.10
67182;DHT22;54114;53.524;49.396;2022-12-29T08:21:59;-2.00;72.30
67182;DHT22;54114;53.524;49.396;2022-12-29T08:24:25;-2.00;72.60
67182;DHT22;54114;53.524;49.396;2022-12-29T08:26:52;-1.90;72.90
67182;DHT22;54114;53.524;49.396;2022-12-29T08:29:19;-1.90;73.10
67182;DHT22;54114;53.524;49.396;2022-12-29T08:31:47;-1.90;73.10
67182;DHT22;54114;53.524;49.396;2022-12-29T08:34:14;-1.90;73.20
67182;DHT22;54114;53.524;49.396;2022-12-29T08:36:41;-1.90;73.30
67182;DHT22;54114;53.524;49.396;2022-12-29T08:39:07;-1.80;73.50
67182;DHT22;54114;53.524;49.396;2022-12-29T08:41:34;-1.80;73.60
67182;DHT22;54114;53.524;49.396;2022-12-29T08:44:00;-1.70;73.70
67182;DHT22;54114;53.524;49.396;2022-12-29T08:46:27;-1.70;73.80
67182;DHT22;54114;53.524;49.396;2022-12-29T08:48:55;-1.60;74.00
67182;DHT22;54114;53.524;49.396;2022-12-29T08:51:28;-1.50;74.00
67182;DHT22;54114;53.524;49.396;2022-12-29T08:53:58;-1.50;73.90
67182;DHT22;54114;53.524;49.396;2022-12-29T08:56:24;-1.40;74.00
67182;DHT22;54114;53.524;49.396;2022-12-29T08:58:51;-1.40;73.80
67182;DHT22;54114;53.524;49.396;2022-12-29T09:01:20;-1.30;73.90
67182;DHT22;54114;53.524;49.396;2022-12-29T09:03:47;-1.30;73.90
67182;DHT22;54114;53.524;49.396;2022-12-29T09:06:18;-1.30;73.90
67182;DHT22;54114;53.524;49.396;2022-12-29T09:08:44;-1.20;73.80
67182;DHT22;54114;53.524;49.396;2022-12-29T09:11:12;-1.20;73.70
67182;DHT22;54114;53.524;49.396;2022-12-29T09:13:42;-1.10;73.80
67182;DHT22;54114;53.524;49.396;2022-12-29T09:16:13;-1.10;73.90
67182;DHT22;54114;53.524;49.396;2022-12-29T09:18:41;-1.00;74.00
67182;DHT22;54114;53.524;49.396;2022-12-29T09:21:10;-0.90;73.80
67182;DHT22;54114;53.524;49.396;2022-12-29T09:23:38;-0.90;73.80
67182;DHT22;54114;53.524;49.396;2022-12-29T09:26:04;-0.90;73.70
67182;DHT22;54114;53.524;49.396;2022-12-29T09:28:31;-0.80;73.60
67182;DHT22;54114;53.524;49.396;2022-12-29T09:31:00;-0.80;73.50
67182;DHT22;54114;53.524;49.396;2022-12-29T09:33:27;-0.70;73.60
67182;DHT22;54114;53.524;49.396;2022-12-29T09:35:58;-0.70;73.60
67182;DHT22;54114;53.524;49.396;2022-12-29T09:38:27;-0.60;73.60
67182;DHT22;54114;53.524;49.396;2022-12-29T09:41:01;-0.50;73.40
67182;DHT22;54114;53.524;49.396;2022-12-29T09:46:26;-0.30;73.50
67182;DHT22;54114;53.524;49.396;2022-12-29T09:49:06;-0.30;73.40
67182;DHT22;54114;53.524;49.396;2022-12-29T09:51:38;-0.10;74.00
67182;DHT22;54114;53.524;49.396;2022-12-29T09:57:13;0.10;73.20
67182;DHT22;54114;53.524;49.396;2022-12-29T09:59:47;0.30;73.00
67182;DHT22;54114;53.524;49.396;2022-12-29T10:04:44;0.50;72.50
67182;DHT22;54114;53.524;49.396;2022-12-29T10:07:15;0.60;72.10
67182;DHT22;54114;53.524;49.396;2022-12-29T10:15:43;0.60;71.50
67182;DHT22;54114;53.524;49.396;2022-12-29T10:24:29;0.50;70.80
67182;DHT22;54114;53.524;49.396;2022-12-29T10:27:03;0.50;70.70
67182;DHT22;54114;53.524;49.396;2022-12-29T10:29:32;0.50;70.70
67182;DHT22;54114;53.524;49.396;2022-12-29T10:32:06;0.50;70.70
67182;DHT22;54114;53.524;49.396;2022-12-29T10:34:45;0.50;70.60
67182;DHT22;54114;53.524;49.396;2022-12-29T10:39:50;0.60;70.50
67182;DHT22;54114;53.524;49.396;2022-12-29T10:44:44;0.60;69.90
67182;DHT22;54114;53.524;49.396;2022-12-29T10:47:12;0.70;69.90
67182;DHT22;54114;53.524;49.396;2022-12-29T10:49:44;0.70;69.70
67182;DHT22;54114;53.524;49.396;2022-12-29T10:52:14;0.70;69.30
67182;DHT22;54114;53.524;49.396;2022-12-29T10:57:18;0.60;68.60
67182;DHT22;54114;53.524;49.396;2022-12-29T10:59:52;0.50;68.70
67182;DHT22;54114;53.524;49.396;2022-12-29T11:05:12;0.30;68.60
67182;DHT22;54114;53.524;49.396;2022-12-29T11:08:01;0.20;68.20
67182;DHT22;54114;53.524;49.396;2022-12-29T11:13:13;0.10;68.30
67182;DHT22;54114;53.524;49.396;2022-12-29T11:15:48;-0.10;68.20
67182;DHT22;54114;53.524;49.396;2022-12-29T11:18:19;-0.10;68.20
67182;DHT22;54114;53.524;49.396;2022-12-29T11:20:54;-0.20;68.10
67182;DHT22;54114;53.524;49.396;2022-12-29T11:23:26;-0.30;68.00
67182;DHT22;54114;53.524;49.396;2022-12-29T11:28:44;-0.40;68.30
67182;DHT22;54114;53.524;49.396;2022-12-29T11:31:15;-0.50;68.40
67182;DHT22;54114;53.524;49.396;2022-12-29T11:33:42;-0.50;68.50
67182;DHT22;54114;53.524;49.396;2022-12-29T11:36:17;-0.60;68.50
67182;DHT22;54114;53.524;49.396;2022-12-29T11:38:47;-0.60;68.50
67182;DHT22;54114;53.524;49.396;2022-12-29T11:41:20;-0.60;68.50
67182;DHT22;54114;53.524;49.396;2022-12-29T11:43:51;-0.60;68.70
67182;DHT22;54114;53.524;49.396;2022-12-29T11:46:29;-0.70;68.50
67182;DHT22;54114;53.524;49.396;2022-12-29T11:49:00;-0.70;68.50
67182;DHT22;54114;53.524;49.396;2022-12-29T11:51:30;-0.70;69.10
67182;DHT22;54114;53.524;49.396;2022-12-29T11:54:03;-0.70;68.60
67182;DHT22;54114;53.524;49.396;2022-12-29T11:56:41;-0.80;68.40
67182;DHT22;54114;53.524;49.396;2022-12-29T11:59:23;-0.80;68.50
67182;DHT22;54114;53.524;49.396;2022-12-29T12:02:00;-0.80;68.50
67182;DHT22;54114;53.524;49.396;2022-12-29T12:04:36;-0.90;68.40
67182;DHT22;54114;53.524;49.396;2022-12-29T12:09:58;-1.00;68.30
67182;DHT22;54114;53.524;49.396;2022-12-29T12:15:18;-1.20;68.30
67182;DHT22;54114;53.524;49.396;2022-12-29T12:17:54;-1.30;69.00
67182;DHT22;54114;53.524;49.396;2022-12-29T12:23:21;-1.40;68.70
67182;DHT22;54114;53.524;49.396;2022-12-29T12:26:16;-1.50;68.80
67182;DHT22;54114;53.524;49.396;2022-12-29T12:29:38;-1.50;68.80
67182;DHT22;54114;53.524;49.396;2022-12-29T12:32:00;-1.60;68.90
67182;DHT22;54114;53.524;49.396;2022-12-29T12:34:32;-1.60;69.00
67182;DHT22;54114;53.524;49.396;2022-12-29T12:59:38;-2.00;69.60
67182;DHT22;54114;53.524;49.396;2022-12-29T13:02:17;-2.00;69.60
67182;DHT22;54114;53.524;49.396;2022-12-29T13:24:05;-2.10;70.40
67182;DHT22;54114;53.524;49.396;2022-12-29T13:26:58;-2.10;70.40
67182;DHT22;54114;53.524;49.396;2022-12-29T13:29:34;-2.10;70.10
67182;DHT22;54114;53.524;49.396;2022-12-29T13:37:51;-2.00;70.20
67182;DHT22;54114;53.524;49.396;2022-12-29T13:40:28;-2.00;70.10
67182;DHT22;54114;53.524;49.396;2022-12-29T13:42:59;-2.00;69.90
67182;DHT22;54114;53.524;49.396;2022-12-29T13:45:28;-2.00;69.90
67182;DHT22;54114;53.524;49.396;2022-12-29T13:47:57;-2.00;69.90
67182;DHT22;54114;53.524;49.396;2022-12-29T13:50:36;-2.00;70.00
67182;DHT22;54114;53.524;49.396;2022-12-29T13:55:55;-2.00;70.30
67182;DHT22;54114;53.524;49.396;2022-12-29T13:58:41;-2.00;70.30
67182;DHT22;54114;53.524;49.396;2022-12-29T14:01:22;-2.00;70.30
67182;DHT22;54114;53.524;49.396;2022-12-29T14:04:12;-2.00;70.10
67182;DHT22;54114;53.524;49.396;2022-12-29T14:06:40;-2.10;70.30
67182;DHT22;54114;53.524;49.396;2022-12-29T14:15:04;-2.20;70.40
67182;DHT22;54114;53.524;49.396;2022-12-29T14:17:44;-2.20;70.50
67182;DHT22;54114;53.524;49.396;2022-12-29T14:20:20;-2.20;70.70
67182;DHT22;54114;53.524;49.396;2022-12-29T14:22:58;-2.20;70.80
67182;DHT22;54114;53.524;49.396;2022-12-29T14:28:27;-2.10;70.80
67182;DHT22;54114;53.524;49.396;2022-12-29T14:30:56;-2.10;70.60
67182;DHT22;54114;53.524;49.396;2022-12-29T14:33:24;-2.10;70.60
67182;DHT22;54114;53.524;49.396;2022-12-29T14:35:52;-2.10;70.50
67182;DHT22;54114;53.524;49.396;2022-12-29T14:38:21;-2.00;70.60
67182;DHT22;54114;53.524;49.396;2022-12-29T14:40:49;-2.00;70.60
67182;DHT22;54114;53.524;49.396;2022-12-29T14:43:23;-2.00;70.50
67182;DHT22;54114;53.524;49.396;2022-12-29T14:45:52;-2.00;70.80
67182;DHT22;54114;53.524;49.396;2022-12-29T14:51:18;-2.00;70.40
67182;DHT22;54114;53.524;49.396;2022-12-29T14:53:48;-1.90;70.30
67182;DHT22;54114;53.524;49.396;2022-12-29T14:56:16;-1.90;70.30
67182;DHT22;54114;53.524;49.396;2022-12-29T14:58:49;-2.00;70.30
67182;DHT22;54114;53.524;49.396;2022-12-29T15:04:22;-2.00;70.30
67182;DHT22;54114;53.524;49.396;2022-12-29T15:06:51;-2.00;70.50
67182;DHT22;54114;53.524;49.396;2022-12-29T15:11:51;-2.10;70.70
67182;DHT22;54114;53.524;49.396;2022-12-29T15:17:27;-2.10;70.90
67182;DHT22;54114;53.524;49.396;2022-12-29T15:19:58;-2.10;70.90
67182;DHT22;54114;53.524;49.396;2022-12-29T15:22:27;-2.10;70.90
67182;DHT22;54114;53.524;49.396;2022-12-29T15:24:55;-2.10;71.00
67182;DHT22;54114;53.524;49.396;2022-12-29T15:27:25;-2.20;70.90
67182;DHT22;54114;53.524;49.396;2022-12-29T15:29:56;-2.20;71.00
67182;DHT22;54114;53.524;49.396;2022-12-29T15:32:39;-2.20;71.10
67182;DHT22;54114;53.524;49.396;2022-12-29T15:35:23;-2.30;71.10
67182;DHT22;54114;53.524;49.396;2022-12-29T15:37:53;-2.30;71.10
67182;DHT22;54114;53.524;49.396;2022-12-29T15:40:24;-2.30;71.30
67182;DHT22;54114;53.524;49.396;2022-12-29T15:45:45;-2.30;71.30
67182;DHT22;54114;53.524;49.396;2022-12-29T15:48:19;-2.30;71.40
67182;DHT22;54114;53.524;49.396;2022-12-29T15:50:47;-2.30;71.40
67182;DHT22;54114;53.524;49.396;2022-12-29T15:53:24;-2.30;71.50
67182;DHT22;54114;53.524;49.396;2022-12-29T15:56:05;-2.30;71.60
67182;DHT22;54114;53.524;49.396;2022-12-29T15:58:44;-2.40;71.50
67182;DHT22;54114;53.524;49.396;2022-12-29T16:01:17;-2.30;71.70
67182;DHT22;54114;53.524;49.396;2022-12-29T16:03:45;-2.30;71.70
67182;DHT22;54114;53.524;49.396;2022-12-29T16:06:26;-2.40;71.60
67182;DHT22;54114;53.524;49.396;2022-12-29T16:11:34;-2.40;71.60
67182;DHT22;54114;53.524;49.396;2022-12-29T16:14:01;-2.40;71.70
67182;DHT22;54114;53.524;49.396;2022-12-29T16:16:29;-2.40;71.80
67182;DHT22;54114;53.524;49.396;2022-12-29T16:19:06;-2.40;72.40
67182;DHT22;54114;53.524;49.396;2022-12-29T16:21:38;-2.50;71.80
67182;DHT22;54114;53.524;49.396;2022-12-29T16:24:08;-2.50;71.90
67182;DHT22;54114;53.524;49.396;2022-12-29T16:26:46;-2.50;71.90
67182;DHT22;54114;53.524;49.396;2022-12-29T16:29:14;-2.50;72.10
67182;DHT22;54114;53.524;49.396;2022-12-29T16:31:54;-2.50;72.10
67182;DHT22;54114;53.524;49.396;2022-12-29T16:34:31;-2.50;72.20
67182;DHT22;54114;53.524;49.396;2022-12-29T16:42:46;-2.50;72.30
67182;DHT22;54114;53.524;49.396;2022-12-29T16:47:46;-2.50;72.30
67182;DHT22;54114;53.524;49.396;2022-12-29T16:50:17;-2.50;72.30
67182;DHT22;54114;53.524;49.396;2022-12-29T16:52:48;-2.50;72.30
67182;DHT22;54114;53.524;49.396;2022-12-29T16:55:22;-2.50;72.30
67182;DHT22;54114;53.524;49.396;2022-12-29T16:57:49;-2.50;72.40
67182;DHT22;54114;53.524;49.396;2022-12-29T17:00:20;-2.50;72.30
67182;DHT22;54114;53.524;49.396;2022-12-29T17:02:52;-2.50;72.30
67182;DHT22;54114;53.524;49.396;2022-12-29T17:05:23;-2.50;72.30
67182;DHT22;54114;53.524;49.396;2022-12-29T17:07:49;-2.50;72.30
67182;DHT22;54114;53.524;49.396;2022-12-29T17:10:20;-2.50;72.30
67182;DHT22;54114;53.524;49.396;2022-12-29T17:13:08;-2.50;72.50
67182;DHT22;54114;53.524;49.396;2022-12-29T17:15:39;-2.50;72.40
67182;DHT22;54114;53.524;49.396;2022-12-29T17:18:08;-2.50;72.40
67182;DHT22;54114;53.524;49.396;2022-12-29T17:20:38;-2.50;72.60
67182;DHT22;54114;53.524;49.396;2022-12-29T17:23:14;-2.50;72.40
67182;DHT22;54114;53.524;49.396;2022-12-29T17:25:41;-2.50;72.40
67182;DHT22;54114;53.524;49.396;2022-12-29T17:28:14;-2.50;72.50
67182;DHT22;54114;53.524;49.396;2022-12-29T17:30:45;-2.50;72.50
67182;DHT22;54114;53.524;49.396;2022-12-29T17:33:13;-2.50;72.50
67182;DHT22;54114;53.524;49.396;2022-12-29T17:35:41;-2.60;72.40
67182;DHT22;54114;53.524;49.396;2022-12-29T17:38:14;-2.50;72.60
67182;DHT22;54114;53.524;49.396;2022-12-29T17:40:46;-2.60;72.60
67182;DHT22;54114;53.524;49.396;2022-12-29T17:43:13;-2.60;72.50
67182;DHT22;54114;53.524;49.396;2022-12-29T17:45:40;-2.60;72.60
67182;DHT22;54114;53.524;49.396;2022-12-29T17:48:17;-2.60;72.70
67182;DHT22;54114;53.524;49.396;2022-12-29T17:50:44;-2.70;73.30
67182;DHT22;54114;53.524;49.396;2022-12-29T17:53:13;-2.60;72.80
67182;DHT22;54114;53.524;49.396;2022-12-29T17:55:40;-2.70;72.90
67182;DHT22;54114;53.524;49.396;2022-12-29T17:58:18;-2.70;72.80
67182;DHT22;54114;53.524;49.396;2022-12-29T18:00:49;-2.60;72.90
67182;DHT22;54114;53.524;49.396;2022-12-29T18:03:20;-2.70;72.70
67182;DHT22;54114;53.524;49.396;2022-12-29T18:05:50;-2.70;72.80
67182;DHT22;54114;53.524;49.396;2022-12-29T18:08:17;-2.70;72.90
67182;DHT22;54114;53.524;49.396;2022-12-29T18:10:43;-2.70;72.90
67182;DHT22;54114;53.524;49.396;2022-12-29T18:13:16;-2.80;72.90
67182;DHT22;54114;53.524;49.396;2022-12-29T18:15:45;-2.80;72.90
67182;DHT22;54114;53.524;49.396;2022-12-29T18:18:15;-2.80;72.90
67182;DHT22;54114;53.524;49.396;2022-12-29T18:20:43;-2.80;72.90
67182;DHT22;54114;53.524;49.396;2022-12-29T18:23:17;-2.90;72.80
67182;DHT22;54114;53.524;49.396;2022-12-29T18:28:23;-3.00;72.70